createdAt,value
2019-03-18T00:00:15.113Z,2.90
2019-03-18T00:02:46.191Z,2.90
2019-03-18T00:05:14.590Z,2.90
2019-03-18T00:07:42.978Z,3.00
2019-03-18T00:10:11.388Z,3.00
2019-03-18T00:12:40.043Z,3.00
2019-03-18T00:15:09.365Z,2.90
2019-03-18T00:17:37.762Z,2.90
2019-03-18T00:20:10.250Z,2.90
2019-03-18T00:22:38.643Z,2.90
2019-03-18T00:25:10.287Z,2.90
2019-03-18T00:27:38.676Z,2.90
2019-03-18T00:30:19.268Z,2.90
2019-03-18T00:32:47.642Z,2.90
2019-03-18T00:35:16.801Z,3.00
2019-03-18T00:37:45.192Z,3.10
2019-03-18T00:40:15.191Z,3.10
2019-03-18T00:42:43.586Z,3.10
2019-03-18T00:45:15.244Z,3.10
2019-03-18T00:47:42.174Z,3.10
2019-03-18T00:50:12.413Z,3.10
2019-03-18T00:52:40.798Z,3.10
2019-03-18T00:55:09.337Z,3.00
2019-03-18T00:57:37.750Z,3.00
2019-03-18T01:00:09.122Z,3.00
2019-03-18T01:02:37.527Z,2.90
2019-03-18T01:05:06.282Z,2.90
2019-03-18T01:07:34.686Z,2.90
2019-03-18T01:10:03.622Z,2.90
2019-03-18T01:12:32.019Z,2.90
2019-03-18T01:15:00.396Z,2.80
2019-03-18T01:17:28.791Z,2.80
2019-03-18T01:19:58.823Z,2.80
2019-03-18T01:22:27.207Z,2.70
2019-03-18T01:24:55.574Z,2.70
2019-03-18T01:27:25.490Z,2.60
2019-03-18T01:29:54.040Z,2.70
2019-03-18T01:32:22.451Z,2.70
2019-03-18T01:34:50.830Z,2.80
2019-03-18T01:37:19.222Z,2.80
2019-03-18T01:39:47.585Z,2.80
2019-03-18T01:42:16.959Z,2.80
2019-03-18T01:44:45.466Z,2.70
2019-03-18T01:47:13.864Z,2.70
2019-03-18T01:49:42.234Z,2.60
2019-03-18T01:52:10.636Z,2.50
2019-03-18T01:54:39.005Z,2.40
2019-03-18T01:57:07.395Z,2.30
2019-03-18T01:59:35.775Z,2.20
2019-03-18T02:02:04.162Z,2.30
2019-03-18T02:04:32.546Z,2.30
2019-03-18T02:07:00.942Z,2.40
2019-03-18T02:09:29.318Z,2.40
2019-03-18T02:11:57.717Z,2.50
2019-03-18T02:14:26.093Z,2.60
2019-03-18T02:16:54.488Z,2.60
2019-03-18T02:19:22.862Z,2.60
2019-03-18T02:21:51.230Z,2.70
2019-03-18T02:24:19.627Z,2.70
2019-03-18T02:26:48.004Z,2.70
2019-03-18T02:29:16.398Z,2.70
2019-03-18T02:31:44.783Z,2.70
2019-03-18T02:34:13.187Z,2.70
2019-03-18T02:36:41.554Z,2.70
2019-03-18T02:39:09.960Z,2.80
2019-03-18T02:41:38.335Z,2.80
2019-03-18T02:44:06.724Z,2.80
2019-03-18T02:46:35.106Z,2.80
2019-03-18T02:49:03.495Z,2.80
2019-03-18T02:51:31.880Z,2.80
2019-03-18T02:54:00.282Z,2.80
2019-03-18T02:56:28.657Z,2.80
2019-03-18T02:58:57.550Z,2.80
2019-03-18T03:01:25.926Z,2.80
2019-03-18T03:03:54.328Z,2.80
2019-03-18T03:06:22.707Z,2.80
2019-03-18T03:08:51.236Z,2.90
2019-03-18T03:11:19.601Z,2.90
2019-03-18T03:13:47.994Z,2.80
2019-03-18T03:16:26.325Z,2.80
2019-03-18T03:18:46.412Z,2.90
2019-03-18T03:21:14.816Z,2.80
2019-03-18T03:23:43.198Z,2.80
2019-03-18T03:26:11.580Z,2.80
2019-03-18T03:28:39.986Z,2.80
2019-03-18T03:31:08.338Z,2.60
2019-03-18T03:33:36.763Z,2.60
2019-03-18T03:36:05.105Z,2.50
2019-03-18T03:38:33.508Z,2.50
2019-03-18T03:41:01.900Z,2.50
2019-03-18T03:43:30.293Z,2.50
2019-03-18T03:45:58.673Z,2.50
2019-03-18T03:48:27.076Z,2.50
2019-03-18T03:50:55.443Z,2.60
2019-03-18T03:53:23.849Z,2.60
2019-03-18T03:55:52.217Z,2.60
2019-03-18T03:58:20.622Z,2.70
2019-03-18T04:00:49.006Z,2.70
2019-03-18T04:03:17.394Z,2.70
2019-03-18T04:05:45.762Z,2.70
2019-03-18T04:08:14.135Z,2.70
2019-03-18T04:10:42.539Z,2.70
2019-03-18T04:13:10.903Z,2.70
2019-03-18T04:15:39.366Z,2.70
2019-03-18T04:18:07.755Z,2.80
2019-03-18T04:20:36.159Z,2.70
2019-03-18T04:23:04.551Z,2.70
2019-03-18T04:25:32.941Z,2.70
2019-03-18T04:28:01.331Z,2.70
2019-03-18T04:30:29.726Z,2.70
2019-03-18T04:32:58.099Z,2.70
2019-03-18T04:35:26.503Z,2.60
2019-03-18T04:37:54.876Z,2.50
2019-03-18T04:40:23.266Z,2.50
2019-03-18T04:42:51.640Z,2.50
2019-03-18T04:45:20.057Z,2.60
2019-03-18T04:47:49.372Z,2.60
2019-03-18T04:50:17.750Z,2.60
2019-03-18T04:52:46.119Z,2.60
2019-03-18T04:55:14.526Z,2.60
2019-03-18T04:57:42.899Z,2.50
2019-03-18T05:00:14.422Z,2.50
2019-03-18T05:02:42.792Z,2.50
2019-03-18T05:05:11.181Z,2.50
2019-03-18T05:07:39.563Z,2.50
2019-03-18T05:10:09.404Z,2.50
2019-03-18T05:12:37.765Z,2.50
2019-03-18T05:15:09.972Z,2.50
2019-03-18T05:17:38.357Z,2.60
2019-03-18T05:20:08.590Z,2.60
2019-03-18T05:22:36.969Z,2.70
2019-03-18T05:25:07.575Z,2.70
2019-03-18T05:27:35.953Z,2.70
2019-03-18T05:30:09.568Z,2.70
2019-03-18T05:32:37.934Z,2.70
2019-03-18T05:35:06.711Z,2.60
2019-03-18T05:37:35.095Z,2.60
2019-03-18T05:40:03.980Z,2.50
2019-03-18T05:42:32.349Z,2.50
2019-03-18T05:45:00.758Z,2.50
2019-03-18T05:47:38.565Z,2.50
2019-03-18T05:49:59.159Z,2.60
2019-03-18T05:52:27.526Z,2.60
2019-03-18T05:54:55.917Z,2.60
2019-03-18T05:57:26.031Z,2.70
2019-03-18T05:59:54.322Z,2.70
2019-03-18T06:02:23.362Z,2.70
2019-03-18T06:04:51.760Z,2.80
2019-03-18T06:07:20.127Z,2.80
2019-03-18T06:09:48.523Z,3.00
2019-03-18T06:12:16.897Z,3.10
2019-03-18T06:14:45.840Z,3.20
2019-03-18T06:17:14.244Z,3.90
2019-03-18T06:19:42.610Z,4.10
2019-03-18T06:22:11.002Z,4.20
2019-03-18T06:24:39.369Z,6.80
2019-03-18T06:27:07.775Z,6.60
2019-03-18T06:29:36.147Z,5.30
2019-03-18T06:32:04.548Z,4.60
2019-03-18T06:34:32.920Z,4.00
2019-03-18T06:37:01.322Z,3.70
2019-03-18T06:39:29.698Z,3.30
2019-03-18T06:41:58.100Z,3.20
2019-03-18T06:44:26.465Z,3.10
2019-03-18T06:46:54.855Z,3.00
2019-03-18T06:49:23.232Z,2.80
2019-03-18T06:51:51.634Z,2.80
2019-03-18T06:54:20.007Z,2.80
2019-03-18T06:56:48.410Z,2.80
2019-03-18T06:59:16.779Z,2.70
2019-03-18T07:01:45.184Z,2.70
2019-03-18T07:04:13.553Z,2.70
2019-03-18T07:06:41.947Z,2.80
2019-03-18T07:09:10.321Z,2.90
2019-03-18T07:11:38.715Z,3.00
2019-03-18T07:14:07.003Z,3.00
2019-03-18T07:16:35.399Z,3.10
2019-03-18T07:19:03.774Z,3.10
2019-03-18T07:21:32.192Z,3.20
2019-03-18T07:24:01.141Z,3.10
2019-03-18T07:26:29.522Z,3.10
2019-03-18T07:28:57.900Z,3.10
2019-03-18T07:31:26.299Z,3.30
2019-03-18T07:33:54.674Z,3.50
2019-03-18T07:36:23.073Z,3.90
2019-03-18T07:38:51.447Z,4.00
2019-03-18T07:41:19.855Z,3.80
2019-03-18T07:43:48.224Z,3.90
2019-03-18T07:46:16.620Z,4.00
2019-03-18T07:48:44.986Z,4.10
2019-03-18T07:51:13.383Z,4.00
2019-03-18T07:53:41.770Z,3.90
2019-03-18T07:56:10.355Z,4.10
2019-03-18T07:58:38.723Z,4.40
2019-03-18T08:01:07.114Z,4.70
2019-03-18T08:03:36.698Z,4.80
2019-03-18T08:06:05.190Z,5.40
2019-03-18T08:08:33.657Z,7.30
2019-03-18T08:11:02.060Z,6.60
2019-03-18T08:13:30.474Z,5.60
2019-03-18T08:15:58.870Z,5.00
2019-03-18T08:18:27.252Z,4.90
2019-03-18T08:20:55.652Z,4.60
2019-03-18T08:23:24.621Z,4.60
2019-03-18T08:25:52.991Z,4.50
2019-03-18T08:28:21.387Z,4.70
2019-03-18T08:30:49.767Z,4.80
2019-03-18T08:33:18.190Z,5.00
2019-03-18T08:35:46.551Z,4.90
2019-03-18T08:38:14.982Z,5.10
2019-03-18T08:40:43.347Z,5.30
2019-03-18T08:43:11.758Z,5.30
2019-03-18T08:45:40.127Z,5.20
2019-03-18T08:48:08.520Z,5.20
2019-03-18T08:50:36.899Z,5.20
2019-03-18T08:53:05.297Z,5.60
2019-03-18T08:55:33.674Z,5.10
2019-03-18T08:58:02.077Z,5.00
2019-03-18T09:00:30.462Z,4.70
2019-03-18T09:02:58.858Z,4.80
2019-03-18T09:05:27.154Z,5.00
2019-03-18T09:07:55.550Z,5.00
2019-03-18T09:10:23.856Z,4.90
2019-03-18T09:12:52.247Z,5.40
2019-03-18T09:15:20.628Z,7.40
2019-03-18T09:17:49.053Z,9.30
2019-03-18T09:20:18.421Z,10.80
2019-03-18T09:22:46.817Z,12.90
2019-03-18T09:25:15.290Z,14.40
2019-03-18T09:27:43.708Z,14.30
2019-03-18T09:30:18.023Z,11.90
2019-03-18T09:32:46.534Z,11.40
2019-03-18T09:35:14.920Z,12.00
2019-03-18T09:37:43.350Z,9.50
2019-03-18T09:40:13.368Z,9.20
2019-03-18T09:42:41.759Z,7.70
2019-03-18T09:45:14.674Z,6.90
2019-03-18T09:47:43.074Z,6.80
2019-03-18T09:50:11.833Z,6.70
2019-03-18T09:52:41.126Z,7.20
2019-03-18T09:55:09.717Z,7.10
2019-03-18T09:57:38.419Z,7.40
2019-03-18T10:31:40.160Z,6.80
2019-03-18T10:49:55.400Z,7.20
2019-03-18T10:52:23.877Z,6.60
2019-03-18T10:54:52.344Z,6.70
2019-03-18T10:57:20.724Z,7.00
2019-03-18T10:59:49.217Z,7.50
2019-03-18T11:02:17.655Z,7.60
2019-03-18T11:04:46.066Z,7.70
2019-03-18T11:07:14.519Z,7.70
2019-03-18T11:09:42.983Z,8.10
2019-03-18T11:12:11.948Z,10.00
2019-03-18T11:14:40.469Z,11.60
2019-03-18T11:17:08.860Z,11.80
2019-03-18T11:19:37.941Z,11.70
2019-03-18T11:22:06.338Z,10.30
2019-03-18T11:24:34.772Z,9.70
2019-03-18T11:27:03.252Z,9.10
2019-03-18T11:29:31.609Z,8.40
2019-03-18T11:32:00.566Z,8.10
2019-03-18T11:34:28.993Z,8.10
2019-03-18T11:36:57.378Z,8.10
2019-03-18T11:39:25.778Z,7.80
2019-03-18T11:41:54.163Z,7.50
2019-03-18T11:44:22.585Z,7.20
2019-03-18T11:46:50.947Z,7.60
2019-03-18T11:49:19.417Z,7.70
2019-03-18T11:51:47.795Z,7.40
2019-03-18T11:54:16.287Z,7.60
2019-03-18T11:56:44.712Z,9.00
2019-03-18T11:59:13.134Z,9.80
2019-03-18T12:01:41.897Z,10.70
2019-03-18T12:04:10.323Z,9.80
2019-03-18T12:06:38.711Z,9.40
2019-03-18T12:09:07.149Z,8.70
2019-03-18T12:11:35.532Z,9.40
2019-03-18T12:14:03.923Z,10.70
2019-03-18T12:16:32.323Z,10.50
2019-03-18T12:19:00.703Z,9.80
2019-03-18T12:21:29.113Z,9.30
2019-03-18T12:23:57.483Z,8.60
2019-03-18T12:26:25.903Z,8.70
2019-03-18T12:28:54.308Z,10.20
2019-03-18T12:31:22.708Z,11.30
2019-03-18T12:33:51.104Z,10.70
2019-03-18T12:36:19.507Z,10.40
2019-03-18T12:38:47.876Z,9.20
2019-03-18T12:41:16.281Z,8.70
2019-03-18T12:43:44.712Z,8.70
2019-03-18T12:46:13.116Z,8.60
2019-03-18T12:48:41.507Z,8.40
2019-03-18T12:51:09.914Z,9.90
2019-03-18T12:53:38.321Z,11.00
2019-03-18T12:56:06.753Z,11.60
2019-03-18T12:58:35.151Z,11.60
2019-03-18T13:01:12.480Z,10.00
2019-03-18T13:03:33.627Z,9.50
2019-03-18T13:06:02.096Z,9.30
2019-03-18T13:08:30.471Z,9.20
2019-03-18T13:10:58.866Z,10.10
2019-03-18T13:13:27.250Z,10.80
2019-03-18T13:15:55.654Z,10.70
2019-03-18T13:18:24.044Z,10.30
2019-03-18T13:20:52.443Z,9.70
2019-03-18T13:23:20.826Z,9.20
2019-03-18T13:25:49.241Z,8.60
2019-03-18T13:28:17.639Z,8.40
2019-03-18T13:30:46.035Z,8.20
2019-03-18T13:33:14.408Z,7.70
2019-03-18T13:35:43.275Z,7.80
2019-03-18T13:38:11.702Z,7.80
2019-03-18T13:40:40.431Z,7.70
2019-03-18T13:43:08.820Z,7.70
2019-03-18T13:45:37.293Z,7.70
2019-03-18T13:48:05.664Z,7.60
2019-03-18T13:50:34.077Z,7.70
2019-03-18T13:53:02.449Z,7.70
2019-03-18T13:55:30.850Z,8.20
2019-03-18T13:57:59.258Z,9.10
2019-03-18T14:00:27.629Z,9.20
2019-03-18T14:02:56.089Z,9.10
2019-03-18T14:05:24.598Z,9.00
2019-03-18T14:08:00.333Z,8.70
2019-03-18T14:10:23.669Z,8.60
2019-03-18T14:12:52.070Z,8.60
2019-03-18T14:15:24.562Z,8.70
2019-03-18T14:17:52.961Z,8.40
2019-03-18T14:20:25.617Z,8.20
2019-03-18T14:22:54.027Z,8.00
2019-03-18T14:25:22.450Z,8.10
2019-03-18T14:27:50.877Z,8.20
2019-03-18T14:30:22.867Z,8.40
2019-03-18T14:32:51.265Z,8.30
2019-03-18T14:35:21.612Z,8.50
2019-03-18T14:37:49.752Z,8.20
2019-03-18T14:40:22.171Z,8.00
2019-03-18T14:42:50.598Z,8.00
2019-03-18T14:45:20.011Z,7.70
2019-03-18T14:47:48.413Z,7.60
2019-03-18T14:50:17.636Z,7.60
2019-03-18T14:52:46.051Z,7.60
2019-03-18T14:55:15.502Z,7.40
2019-03-18T14:57:43.909Z,7.60
2019-03-18T15:00:19.981Z,7.40
2019-03-18T15:02:48.354Z,7.40
2019-03-18T15:05:16.721Z,7.30
2019-03-18T15:07:45.135Z,7.20
2019-03-18T15:10:27.480Z,7.30
2019-03-18T15:12:55.907Z,7.30
2019-03-18T15:15:24.325Z,7.40
2019-03-18T15:17:52.741Z,7.50
2019-03-18T15:20:27.260Z,7.30
2019-03-18T15:22:55.720Z,7.00
2019-03-18T15:25:36.422Z,6.90
2019-03-18T15:28:05.020Z,6.70
2019-03-18T15:30:33.386Z,6.90
2019-03-18T15:33:01.780Z,7.00
2019-03-18T15:35:30.188Z,7.10
2019-03-18T15:37:58.673Z,7.10
2019-03-18T15:40:30.292Z,7.00
2019-03-18T15:42:58.709Z,6.90
2019-03-18T15:45:27.103Z,6.70
2019-03-18T15:47:55.482Z,6.80
2019-03-18T15:50:27.143Z,6.80
2019-03-18T15:52:55.539Z,6.70
2019-03-18T15:55:24.647Z,6.40
2019-03-18T15:57:53.349Z,6.20
2019-03-18T16:00:25.607Z,6.20
2019-03-18T16:02:54.055Z,6.20
2019-03-18T16:05:22.470Z,6.20
2019-03-18T16:07:50.872Z,6.10
2019-03-18T16:10:20.166Z,6.20
2019-03-18T16:12:48.591Z,6.20
2019-03-18T16:15:17.906Z,6.20
2019-03-18T16:17:46.348Z,6.10
2019-03-18T16:20:19.058Z,6.00
2019-03-18T16:22:47.484Z,6.00
2019-03-18T16:25:15.887Z,6.00
2019-03-18T16:27:44.302Z,6.00
2019-03-18T16:30:17.341Z,5.80
2019-03-18T16:32:45.747Z,5.90
2019-03-18T16:35:16.206Z,5.90
2019-03-18T16:37:44.860Z,5.90
2019-03-18T16:40:21.733Z,5.70
2019-03-18T16:42:50.164Z,5.60
2019-03-18T16:45:19.507Z,5.50
2019-03-18T16:47:47.879Z,5.40
2019-03-18T16:50:32.977Z,5.40
2019-03-18T16:53:50.709Z,5.30
2019-03-18T16:56:52.411Z,5.30
2019-03-18T16:59:22.963Z,5.30
2019-03-18T17:01:51.058Z,5.20
2019-03-18T17:04:19.519Z,5.00
2019-03-18T17:06:47.942Z,4.90
2019-03-18T17:09:18.971Z,4.70
2019-03-18T17:11:47.433Z,4.60
2019-03-18T17:14:15.985Z,4.50
2019-03-18T17:16:47.274Z,4.40
2019-03-18T17:19:15.752Z,4.30
2019-03-18T17:21:44.268Z,4.30
2019-03-18T17:24:12.662Z,4.50
2019-03-18T17:26:41.067Z,4.60
2019-03-18T17:29:09.516Z,4.70
2019-03-18T17:31:37.936Z,4.80
2019-03-18T17:34:06.389Z,4.80
2019-03-18T17:36:34.908Z,4.80
2019-03-18T17:39:04.209Z,4.80
2019-03-18T17:41:32.644Z,4.80
2019-03-18T17:44:01.106Z,4.80
2019-03-18T17:46:29.554Z,4.80
2019-03-18T17:48:58.025Z,4.60
2019-03-18T17:51:26.533Z,4.40
2019-03-18T17:53:55.007Z,4.20
2019-03-18T17:56:30.097Z,4.20
2019-03-18T17:58:53.587Z,4.10
2019-03-18T18:01:22.021Z,3.90
2019-03-18T18:03:50.498Z,3.80
2019-03-18T18:06:19.001Z,3.70
2019-03-18T18:08:47.428Z,3.70
2019-03-18T18:11:15.843Z,3.50
2019-03-18T18:13:44.299Z,3.50
2019-03-18T18:16:12.727Z,3.40
2019-03-18T18:18:41.188Z,3.40
2019-03-18T18:21:09.610Z,3.10
2019-03-18T18:23:38.051Z,2.90
2019-03-18T18:26:06.492Z,2.70
2019-03-18T18:28:35.035Z,2.60
2019-03-18T18:31:03.649Z,2.70
2019-03-18T18:33:32.098Z,2.70
2019-03-18T18:36:00.837Z,2.70
2019-03-18T18:38:29.298Z,2.80
2019-03-18T18:40:57.766Z,2.90
2019-03-18T18:43:26.251Z,2.90
2019-03-18T18:45:54.717Z,2.90
2019-03-18T18:48:23.139Z,2.90
2019-03-18T18:50:51.622Z,2.90
2019-03-18T18:53:26.911Z,2.90
2019-03-18T18:55:52.011Z,2.80
2019-03-18T18:58:20.418Z,2.80
2019-03-18T19:00:48.895Z,2.80
2019-03-18T19:03:17.356Z,2.70
2019-03-18T19:05:45.888Z,2.80
2019-03-18T19:08:14.336Z,2.80
2019-03-18T19:10:42.778Z,2.90
2019-03-18T19:13:11.844Z,3.00
2019-03-18T19:15:41.862Z,3.00
2019-03-18T19:18:10.313Z,3.00
2019-03-18T19:20:38.759Z,3.00
2019-03-18T19:23:07.201Z,2.90
2019-03-18T19:25:35.654Z,2.80
2019-03-18T19:28:06.519Z,2.80
2019-03-18T19:30:35.020Z,2.80
2019-03-18T19:33:03.549Z,2.70
2019-03-18T19:35:31.997Z,2.60
2019-03-18T19:38:00.387Z,2.50
2019-03-18T19:40:28.857Z,2.40
2019-03-18T19:42:57.287Z,2.40
2019-03-18T19:45:25.716Z,2.30
2019-03-18T19:47:54.223Z,2.10
2019-03-18T19:50:24.799Z,2.10
2019-03-18T19:52:53.219Z,2.10
2019-03-18T19:55:21.703Z,1.90
2019-03-18T19:57:50.113Z,1.80
2019-03-18T20:00:23.657Z,1.70
2019-03-18T20:02:52.092Z,1.70
2019-03-18T20:05:20.555Z,1.80
2019-03-18T20:07:48.967Z,1.80
2019-03-18T20:10:19.691Z,1.90
2019-03-18T20:12:48.142Z,2.00
2019-03-18T20:15:19.992Z,2.00
2019-03-18T20:17:48.428Z,2.10
2019-03-18T20:20:18.005Z,2.10
2019-03-18T20:22:46.406Z,2.20
2019-03-18T20:25:14.861Z,2.20
2019-03-18T20:27:43.345Z,2.30
2019-03-18T20:30:20.141Z,2.30
2019-03-18T20:32:48.554Z,2.30
2019-03-18T20:35:18.376Z,2.30
2019-03-18T20:37:46.830Z,2.30
2019-03-18T20:40:16.026Z,2.30
2019-03-18T20:42:44.474Z,2.30
2019-03-18T20:45:20.972Z,2.20
2019-03-18T20:47:49.418Z,2.20
2019-03-18T20:50:21.900Z,2.10
2019-03-18T20:52:53.997Z,2.10
2019-03-18T20:55:42.454Z,2.00
2019-03-18T20:58:13.535Z,2.00
2019-03-18T21:00:55.307Z,2.00
2019-03-18T21:12:35.473Z,1.90
2019-03-18T21:18:31.372Z,1.80
2019-03-18T21:21:07.444Z,1.70
2019-03-18T21:24:03.434Z,1.60
2019-03-18T21:27:05.533Z,1.60
2019-03-18T21:41:17.983Z,1.20
2019-03-18T21:46:48.891Z,0.90
2019-03-18T21:49:39.361Z,0.90
2019-03-18T21:52:05.397Z,0.90
2019-03-18T21:54:34.601Z,0.90
2019-03-18T21:57:03.101Z,0.80
2019-03-18T21:59:31.520Z,0.80
2019-03-18T22:02:00.009Z,0.80
2019-03-18T22:04:28.451Z,0.80
2019-03-18T22:06:56.976Z,0.70
2019-03-18T22:09:25.361Z,0.70
2019-03-18T22:11:53.835Z,0.60
2019-03-18T22:14:22.265Z,0.50
2019-03-18T22:16:50.748Z,0.60
2019-03-18T22:19:19.188Z,0.60
2019-03-18T22:21:47.687Z,0.40
2019-03-18T22:24:16.101Z,0.40
2019-03-18T22:26:44.502Z,0.50
2019-03-18T22:29:12.948Z,0.40
2019-03-18T22:31:41.393Z,0.40
2019-03-18T22:34:09.848Z,0.40
2019-03-18T22:36:38.269Z,0.40
2019-03-18T22:39:08.188Z,0.30
2019-03-18T22:41:36.623Z,0.30
2019-03-18T22:44:05.078Z,0.40
2019-03-18T22:46:33.502Z,0.40
2019-03-18T22:49:01.987Z,0.40
2019-03-18T22:51:30.440Z,0.60
2019-03-18T22:53:58.893Z,0.50
2019-03-18T22:56:27.314Z,0.50
2019-03-18T22:58:55.795Z,0.50
2019-03-18T23:01:24.423Z,0.50
2019-03-18T23:03:52.859Z,0.50
2019-03-18T23:06:21.325Z,0.50
2019-03-18T23:08:49.904Z,0.50
2019-03-18T23:11:18.427Z,0.50
2019-03-18T23:13:46.868Z,0.60
2019-03-18T23:16:15.304Z,0.70
2019-03-18T23:18:43.755Z,0.90
2019-03-18T23:21:12.193Z,1.10
2019-03-18T23:23:43.271Z,1.30
2019-03-18T23:26:11.710Z,1.30
2019-03-18T23:28:40.234Z,1.30
2019-03-18T23:31:09.256Z,1.30
2019-03-18T23:33:37.691Z,1.20
2019-03-18T23:36:06.155Z,1.10
2019-03-18T23:38:34.610Z,1.10
2019-03-18T23:41:03.029Z,1.00
2019-03-18T23:43:31.484Z,0.90
2019-03-18T23:45:59.940Z,0.90
2019-03-18T23:48:28.389Z,0.80
2019-03-18T23:50:56.830Z,0.70
2019-03-18T23:53:25.304Z,0.70
2019-03-18T23:55:53.737Z,0.70
2019-03-18T23:58:22.191Z,0.70
